sensor_id;sensor_type;location;lat;lon;timestamp;temperature;humidity
2967;DHT22;1493;51.496;7.210;2022-09-01T00:01:04;19.40;99.90
2967;DHT22;1493;51.496;7.210;2022-09-01T00:03:33;19.40;99.90
2967;DHT22;1493;51.496;7.210;2022-09-01T00:06:01;19.40;99.90
2967;DHT22;1493;51.496;7.210;2022-09-01T00:08:29;19.40;99.90
2967;DHT22;1493;51.496;7.210;2022-09-01T00:10:56;19.40;99.90
2967;DHT22;1493;51.496;7.210;2022-09-01T00:13:23;19.30;99.90
2967;DHT22;1493;51.496;7.210;2022-09-01T00:15:50;19.40;99.90
2967;DHT22;1493;51.496;7.210;2022-09-01T00:18:18;19.40;99.90
2967;DHT22;1493;51.496;7.210;2022-09-01T00:20:45;19.40;99.90
2967;DHT22;1493;51.496;7.210;2022-09-01T00:23:12;19.40;99.90
2967;DHT22;1493;51.496;7.210;2022-09-01T00:25:40;19.40;99.90
2967;DHT22;1493;51.496;7.210;2022-09-01T00:28:07;19.40;99.90
2967;DHT22;1493;51.496;7.210;2022-09-01T00:30:34;19.30;99.90
2967;DHT22;1493;51.496;7.210;2022-09-01T00:33:01;19.30;99.90
2967;DHT22;1493;51.496;7.210;2022-09-01T00:35:28;19.40;99.90
2967;DHT22;1493;51.496;7.210;2022-09-01T00:37:55;19.30;99.90
2967;DHT22;1493;51.496;7.210;2022-09-01T00:40:21;19.30;99.90
2967;DHT22;1493;51.496;7.210;2022-09-01T00:42:50;19.30;99.90
2967;DHT22;1493;51.496;7.210;2022-09-01T00:45:19;19.30;99.90
2967;DHT22;1493;51.496;7.210;2022-09-01T00:47:46;19.30;99.90
2967;DHT22;1493;51.496;7.210;2022-09-01T00:50:15;19.30;99.90
2967;DHT22;1493;51.496;7.210;2022-09-01T00:52:47;19.30;99.90
2967;DHT22;1493;51.496;7.210;2022-09-01T00:55:18;19.30;99.90
2967;DHT22;1493;51.496;7.210;2022-09-01T00:57:47;19.30;99.90
2967;DHT22;1493;51.496;7.210;2022-09-01T01:00:18;19.30;99.90
2967;DHT22;1493;51.496;7.210;2022-09-01T01:02:46;19.30;99.90
2967;DHT22;1493;51.496;7.210;2022-09-01T01:05:13;19.20;99.90
2967;DHT22;1493;51.496;7.210;2022-09-01T01:07:42;19.20;99.90
2967;DHT22;1493;51.496;7.210;2022-09-01T01:10:11;19.10;99.90
2967;DHT22;1493;51.496;7.210;2022-09-01T01:12:39;19.10;99.90
2967;DHT22;1493;51.496;7.210;2022-09-01T01:15:09;19.10;99.90
2967;DHT22;1493;51.496;7.210;2022-09-01T01:17:38;19.00;99.90
2967;DHT22;1493;51.496;7.210;2022-09-01T01:20:07;19.00;99.90
2967;DHT22;1493;51.496;7.210;2022-09-01T01:22:58;18.90;99.90
2967;DHT22;1493;51.496;7.210;2022-09-01T01:25:33;18.90;99.90
2967;DHT22;1493;51.496;7.210;2022-09-01T01:28:07;18.80;99.90
2967;DHT22;1493;51.496;7.210;2022-09-01T01:30:35;18.70;99.90
2967;DHT22;1493;51.496;7.210;2022-09-01T01:33:03;18.70;99.90
2967;DHT22;1493;51.496;7.210;2022-09-01T01:35:30;18.60;99.90
2967;DHT22;1493;51.496;7.210;2022-09-01T01:37:59;18.60;99.90
2967;DHT22;1493;51.496;7.210;2022-09-01T01:40:27;18.50;99.90
2967;DHT22;1493;51.496;7.210;2022-09-01T01:42:55;18.50;99.90
2967;DHT22;1493;51.496;7.210;2022-09-01T01:45:24;18.40;99.90
2967;DHT22;1493;51.496;7.210;2022-09-01T01:47:52;18.40;99.90
2967;DHT22;1493;51.496;7.210;2022-09-01T01:50:19;18.30;99.90
2967;DHT22;1493;51.496;7.210;2022-09-01T01:52:47;18.30;99.90
2967;DHT22;1493;51.496;7.210;2022-09-01T01:55:13;18.20;99.90
2967;DHT22;1493;51.496;7.210;2022-09-01T01:57:44;18.20;99.90
2967;DHT22;1493;51.496;7.210;2022-09-01T02:00:19;18.10;99.90
2967;DHT22;1493;51.496;7.210;2022-09-01T02:02:48;18.10;99.90
2967;DHT22;1493;51.496;7.210;2022-09-01T02:05:19;18.10;99.90
2967;DHT22;1493;51.496;7.210;2022-09-01T02:07:51;18.00;99.90
2967;DHT22;1493;51.496;7.210;2022-09-01T02:10:22;17.90;99.90
2967;DHT22;1493;51.496;7.210;2022-09-01T02:12:49;17.90;99.90
2967;DHT22;1493;51.496;7.210;2022-09-01T02:15:18;17.80;99.90
2967;DHT22;1493;51.496;7.210;2022-09-01T02:17:45;17.80;99.90
2967;DHT22;1493;51.496;7.210;2022-09-01T02:20:14;17.80;99.90
2967;DHT22;1493;51.496;7.210;2022-09-01T02:22:42;17.70;99.90
2967;DHT22;1493;51.496;7.210;2022-09-01T02:25:11;17.70;99.90
2967;DHT22;1493;51.496;7.210;2022-09-01T02:27:41;17.70;99.90
2967;DHT22;1493;51.496;7.210;2022-09-01T02:30:09;17.70;99.90
2967;DHT22;1493;51.496;7.210;2022-09-01T02:32:38;17.70;99.90
2967;DHT22;1493;51.496;7.210;2022-09-01T02:35:07;17.60;99.90
2967;DHT22;1493;51.496;7.210;2022-09-01T02:37:35;17.60;99.90
2967;DHT22;1493;51.496;7.210;2022-09-01T02:40:05;17.40;99.90
2967;DHT22;1493;51.496;7.210;2022-09-01T02:42:35;17.40;99.90
2967;DHT22;1493;51.496;7.210;2022-09-01T02:45:05;17.30;99.90
2967;DHT22;1493;51.496;7.210;2022-09-01T02:47:42;17.30;99.90
2967;DHT22;1493;51.496;7.210;2022-09-01T02:50:11;17.30;99.90
2967;DHT22;1493;51.496;7.210;2022-09-01T02:52:44;17.30;99.90
2967;DHT22;1493;51.496;7.210;2022-09-01T02:55:13;17.30;99.90
2967;DHT22;1493;51.496;7.210;2022-09-01T02:57:47;17.20;99.90
2967;DHT22;1493;51.496;7.210;2022-09-01T03:00:16;17.30;99.90
2967;DHT22;1493;51.496;7.210;2022-09-01T03:02:50;17.20;99.90
2967;DHT22;1493;51.496;7.210;2022-09-01T03:05:19;17.20;99.90
2967;DHT22;1493;51.496;7.210;2022-09-01T03:07:51;17.20;99.90
2967;DHT22;1493;51.496;7.210;2022-09-01T03:10:22;17.10;99.90
2967;DHT22;1493;51.496;7.210;2022-09-01T03:12:52;17.10;99.90
2967;DHT22;1493;51.496;7.210;2022-09-01T03:15:19;17.10;99.90
2967;DHT22;1493;51.496;7.210;2022-09-01T03:17:49;17.10;99.90
2967;DHT22;1493;51.496;7.210;2022-09-01T03:20:17;17.10;99.90
2967;DHT22;1493;51.496;7.210;2022-09-01T03:22:45;17.10;99.90
2967;DHT22;1493;51.496;7.210;2022-09-01T03:25:12;17.00;99.90
2967;DHT22;1493;51.496;7.210;2022-09-01T03:27:39;17.00;99.90
2967;DHT22;1493;51.496;7.210;2022-09-01T03:30:07;17.00;99.90
2967;DHT22;1493;51.496;7.210;2022-09-01T03:32:34;16.90;99.90
2967;DHT22;1493;51.496;7.210;2022-09-01T03:35:02;16.90;99.90
2967;DHT22;1493;51.496;7.210;2022-09-01T03:37:29;16.80;99.90
2967;DHT22;1493;51.496;7.210;2022-09-01T03:39:56;16.80;99.90
2967;DHT22;1493;51.496;7.210;2022-09-01T03:42:23;16.80;99.90
2967;DHT22;1493;51.496;7.210;2022-09-01T03:44:54;16.80;99.90
2967;DHT22;1493;51.496;7.210;2022-09-01T03:47:22;16.80;99.90
2967;DHT22;1493;51.496;7.210;2022-09-01T03:49:49;16.80;99.90
2967;DHT22;1493;51.496;7.210;2022-09-01T03:52:17;16.80;99.90
2967;DHT22;1493;51.496;7.210;2022-09-01T03:54:44;16.80;99.90
2967;DHT22;1493;51.496;7.210;2022-09-01T03:57:11;16.80;99.90
2967;DHT22;1493;51.496;7.210;2022-09-01T03:59:38;16.80;99.90
2967;DHT22;1493;51.496;7.210;2022-09-01T04:02:07;16.80;99.90
2967;DHT22;1493;51.496;7.210;2022-09-01T04:04:35;16.70;99.90
2967;DHT22;1493;51.496;7.210;2022-09-01T04:07:02;16.60;99.90
2967;DHT22;1493;51.496;7.210;2022-09-01T04:09:32;16.60;99.90
2967;DHT22;1493;51.496;7.210;2022-09-01T04:12:06;16.70;99.90
2967;DHT22;1493;51.496;7.210;2022-09-01T04:14:33;16.70;99.90
2967;DHT22;1493;51.496;7.210;2022-09-01T04:17:00;16.60;99.90
2967;DHT22;1493;51.496;7.210;2022-09-01T04:19:44;16.60;99.90
2967;DHT22;1493;51.496;7.210;2022-09-01T04:22:12;16.60;99.90
2967;DHT22;1493;51.496;7.210;2022-09-01T04:24:43;16.60;99.90
2967;DHT22;1493;51.496;7.210;2022-09-01T04:27:12;16.50;99.90
2967;DHT22;1493;51.496;7.210;2022-09-01T04:29:39;16.50;99.90
2967;DHT22;1493;51.496;7.210;2022-09-01T04:32:08;16.50;99.90
2967;DHT22;1493;51.496;7.210;2022-09-01T04:34:38;16.60;99.90
2967;DHT22;1493;51.496;7.210;2022-09-01T04:37:08;16.60;99.90
2967;DHT22;1493;51.496;7.210;2022-09-01T04:39:38;16.60;99.90
2967;DHT22;1493;51.496;7.210;2022-09-01T04:42:14;16.60;99.90
2967;DHT22;1493;51.496;7.210;2022-09-01T04:44:43;16.60;99.90
2967;DHT22;1493;51.496;7.210;2022-09-01T04:47:11;16.50;99.90
2967;DHT22;1493;51.496;7.210;2022-09-01T04:49:54;16.50;99.90
2967;DHT22;1493;51.496;7.210;2022-09-01T04:52:22;16.50;99.90
2967;DHT22;1493;51.496;7.210;2022-09-01T04:54:49;16.40;99.90
2967;DHT22;1493;51.496;7.210;2022-09-01T04:57:18;16.40;99.90
2967;DHT22;1493;51.496;7.210;2022-09-01T04:59:45;16.50;99.90
2967;DHT22;1493;51.496;7.210;2022-09-01T05:02:12;16.50;99.90
2967;DHT22;1493;51.496;7.210;2022-09-01T05:04:38;16.50;99.90
2967;DHT22;1493;51.496;7.210;2022-09-01T05:07:11;16.60;99.90
2967;DHT22;1493;51.496;7.210;2022-09-01T05:09:40;16.60;99.90
2967;DHT22;1493;51.496;7.210;2022-09-01T05:12:07;16.60;99.90
2967;DHT22;1493;51.496;7.210;2022-09-01T05:14:38;16.50;99.90
2967;DHT22;1493;51.496;7.210;2022-09-01T05:17:07;16.50;99.90
2967;DHT22;1493;51.496;7.210;2022-09-01T05:19:35;16.60;99.90
2967;DHT22;1493;51.496;7.210;2022-09-01T05:22:03;16.50;99.90
2967;DHT22;1493;51.496;7.210;2022-09-01T05:24:32;16.50;99.90
2967;DHT22;1493;51.496;7.210;2022-09-01T05:27:00;16.60;99.90
2967;DHT22;1493;51.496;7.210;2022-09-01T05:29:27;16.50;99.90
2967;DHT22;1493;51.496;7.210;2022-09-01T05:31:56;16.60;99.90
2967;DHT22;1493;51.496;7.210;2022-09-01T05:34:24;16.50;99.90
2967;DHT22;1493;51.496;7.210;2022-09-01T05:36:53;16.50;99.90
2967;DHT22;1493;51.496;7.210;2022-09-01T05:39:21;16.60;99.90
2967;DHT22;1493;51.496;7.210;2022-09-01T05:41:49;16.60;99.90
2967;DHT22;1493;51.496;7.210;2022-09-01T05:44:18;16.50;99.90
2967;DHT22;1493;51.496;7.210;2022-09-01T05:46:47;16.60;99.90
2967;DHT22;1493;51.496;7.210;2022-09-01T05:49:16;16.60;99.90
2967;DHT22;1493;51.496;7.210;2022-09-01T05:51:45;16.60;99.90
2967;DHT22;1493;51.496;7.210;2022-09-01T05:54:14;16.70;99.90
2967;DHT22;1493;51.496;7.210;2022-09-01T05:56:42;16.70;99.90
2967;DHT22;1493;51.496;7.210;2022-09-01T05:59:09;16.70;99.90
2967;DHT22;1493;51.496;7.210;2022-09-01T06:01:36;16.60;99.90
2967;DHT22;1493;51.496;7.210;2022-09-01T06:04:06;16.70;99.90
2967;DHT22;1493;51.496;7.210;2022-09-01T06:06:37;16.80;99.90
2967;DHT22;1493;51.496;7.210;2022-09-01T06:09:07;16.80;99.90
2967;DHT22;1493;51.496;7.210;2022-09-01T06:11:35;16.80;99.90
2967;DHT22;1493;51.496;7.210;2022-09-01T06:14:02;16.80;99.90
2967;DHT22;1493;51.496;7.210;2022-09-01T06:16:30;16.90;99.90
2967;DHT22;1493;51.496;7.210;2022-09-01T06:18:57;17.00;99.90
2967;DHT22;1493;51.496;7.210;2022-09-01T06:21:25;17.10;99.90
2967;DHT22;1493;51.496;7.210;2022-09-01T06:23:55;17.10;99.90
2967;DHT22;1493;51.496;7.210;2022-09-01T06:26:24;17.10;99.90
2967;DHT22;1493;51.496;7.210;2022-09-01T06:28:54;17.20;99.90
2967;DHT22;1493;51.496;7.210;2022-09-01T06:31:21;17.30;99.90
2967;DHT22;1493;51.496;7.210;2022-09-01T06:33:50;17.30;99.90
2967;DHT22;1493;51.496;7.210;2022-09-01T06:36:18;17.30;99.90
2967;DHT22;1493;51.496;7.210;2022-09-01T06:38:48;17.30;99.90
2967;DHT22;1493;51.496;7.210;2022-09-01T06:41:19;17.40;99.90
2967;DHT22;1493;51.496;7.210;2022-09-01T06:43:49;17.30;99.90
2967;DHT22;1493;51.496;7.210;2022-09-01T06:46:17;17.30;99.90
2967;DHT22;1493;51.496;7.210;2022-09-01T06:48:45;17.40;99.90
2967;DHT22;1493;51.496;7.210;2022-09-01T06:51:13;17.30;99.90
2967;DHT22;1493;51.496;7.210;2022-09-01T06:53:41;17.40;99.90
2967;DHT22;1493;51.496;7.210;2022-09-01T06:56:08;17.40;99.90
2967;DHT22;1493;51.496;7.210;2022-09-01T06:58:39;17.40;99.90
2967;DHT22;1493;51.496;7.210;2022-09-01T07:01:10;17.50;99.90
2967;DHT22;1493;51.496;7.210;2022-09-01T07:03:39;17.50;99.90
2967;DHT22;1493;51.496;7.210;2022-09-01T07:06:07;17.60;99.90
2967;DHT22;1493;51.496;7.210;2022-09-01T07:08:35;17.70;99.90
2967;DHT22;1493;51.496;7.210;2022-09-01T07:11:05;17.70;99.90
2967;DHT22;1493;51.496;7.210;2022-09-01T07:13:36;17.70;99.90
2967;DHT22;1493;51.496;7.210;2022-09-01T07:16:06;17.70;99.90
2967;DHT22;1493;51.496;7.210;2022-09-01T07:18:34;17.80;99.90
2967;DHT22;1493;51.496;7.210;2022-09-01T07:21:04;17.90;99.90
2967;DHT22;1493;51.496;7.210;2022-09-01T07:23:31;18.00;99.90
2967;DHT22;1493;51.496;7.210;2022-09-01T07:25:59;18.00;99.90
2967;DHT22;1493;51.496;7.210;2022-09-01T07:28:26;18.00;99.90
2967;DHT22;1493;51.496;7.210;2022-09-01T07:30:57;18.10;99.90
2967;DHT22;1493;51.496;7.210;2022-09-01T07:33:26;18.20;99.90
2967;DHT22;1493;51.496;7.210;2022-09-01T07:35:55;18.30;99.90
2967;DHT22;1493;51.496;7.210;2022-09-01T07:38:22;18.30;99.90
2967;DHT22;1493;51.496;7.210;2022-09-01T07:40:49;18.40;99.90
2967;DHT22;1493;51.496;7.210;2022-09-01T07:43:20;18.50;99.90
2967;DHT22;1493;51.496;7.210;2022-09-01T07:45:50;18.60;99.90
2967;DHT22;1493;51.496;7.210;2022-09-01T07:48:21;18.70;99.90
2967;DHT22;1493;51.496;7.210;2022-09-01T07:50:52;18.80;99.90
2967;DHT22;1493;51.496;7.210;2022-09-01T07:53:21;18.80;99.90
2967;DHT22;1493;51.496;7.210;2022-09-01T07:55:49;18.90;99.90
2967;DHT22;1493;51.496;7.210;2022-09-01T07:58:18;19.00;99.90
2967;DHT22;1493;51.496;7.210;2022-09-01T08:00:47;19.10;99.90
2967;DHT22;1493;51.496;7.210;2022-09-01T08:03:16;19.20;99.90
2967;DHT22;1493;51.496;7.210;2022-09-01T08:05:43;19.20;99.90
2967;DHT22;1493;51.496;7.210;2022-09-01T08:08:12;19.20;99.90
2967;DHT22;1493;51.496;7.210;2022-09-01T08:10:40;19.40;99.90
2967;DHT22;1493;51.496;7.210;2022-09-01T08:13:08;19.50;99.90
2967;DHT22;1493;51.496;7.210;2022-09-01T08:15:37;19.60;99.90
2967;DHT22;1493;51.496;7.210;2022-09-01T08:18:04;19.70;99.90
2967;DHT22;1493;51.496;7.210;2022-09-01T08:20:31;19.80;99.90
2967;DHT22;1493;51.496;7.210;2022-09-01T08:23:02;19.90;99.90
2967;DHT22;1493;51.496;7.210;2022-09-01T08:25:32;20.00;99.90
2967;DHT22;1493;51.496;7.210;2022-09-01T08:28:00;20.10;99.90
2967;DHT22;1493;51.496;7.210;2022-09-01T08:30:28;20.30;99.90
2967;DHT22;1493;51.496;7.210;2022-09-01T08:32:57;20.40;99.90
2967;DHT22;1493;51.496;7.210;2022-09-01T08:35:23;20.50;99.90
2967;DHT22;1493;51.496;7.210;2022-09-01T08:37:50;20.70;99.90
2967;DHT22;1493;51.496;7.210;2022-09-01T08:40:20;20.90;99.90
2967;DHT22;1493;51.496;7.210;2022-09-01T08:42:58;21.20;99.90
2967;DHT22;1493;51.496;7.210;2022-09-01T08:45:31;21.40;99.90
2967;DHT22;1493;51.496;7.210;2022-09-01T08:48:06;21.60;99.90
2967;DHT22;1493;51.496;7.210;2022-09-01T08:50:37;21.70;99.90
2967;DHT22;1493;51.496;7.210;2022-09-01T08:53:08;21.80;99.90
2967;DHT22;1493;51.496;7.210;2022-09-01T08:55:42;21.70;99.90
2967;DHT22;1493;51.496;7.210;2022-09-01T08:58:15;21.80;99.90
2967;DHT22;1493;51.496;7.210;2022-09-01T09:00:45;21.90;99.90
2967;DHT22;1493;51.496;7.210;2022-09-01T09:03:22;21.90;99.90
2967;DHT22;1493;51.496;7.210;2022-09-01T09:06:03;22.00;99.90
2967;DHT22;1493;51.496;7.210;2022-09-01T09:08:50;22.10;99.90
2967;DHT22;1493;51.496;7.210;2022-09-01T09:11:29;22.20;99.90
2967;DHT22;1493;51.496;7.210;2022-09-01T09:14:06;22.40;99.90
2967;DHT22;1493;51.496;7.210;2022-09-01T09:16:39;22.50;99.90
2967;DHT22;1493;51.496;7.210;2022-09-01T09:19:10;22.70;99.90
2967;DHT22;1493;51.496;7.210;2022-09-01T09:21:40;22.90;99.90
2967;DHT22;1493;51.496;7.210;2022-09-01T09:24:09;23.10;99.90
2967;DHT22;1493;51.496;7.210;2022-09-01T09:26:38;23.30;99.90
2967;DHT22;1493;51.496;7.210;2022-09-01T09:29:07;23.60;99.90
2967;DHT22;1493;51.496;7.210;2022-09-01T09:31:36;23.80;99.90
2967;DHT22;1493;51.496;7.210;2022-09-01T09:34:28;24.10;99.90
2967;DHT22;1493;51.496;7.210;2022-09-01T09:37:00;24.40;99.90
2967;DHT22;1493;51.496;7.210;2022-09-01T09:39:27;24.60;99.90
2967;DHT22;1493;51.496;7.210;2022-09-01T09:42:04;24.80;99.90
2967;DHT22;1493;51.496;7.210;2022-09-01T09:44:41;24.70;99.90
2967;DHT22;1493;51.496;7.210;2022-09-01T09:47:10;25.00;99.90
2967;DHT22;1493;51.496;7.210;2022-09-01T09:49:38;25.10;99.90
2967;DHT22;1493;51.496;7.210;2022-09-01T09:52:15;25.20;99.90
2967;DHT22;1493;51.496;7.210;2022-09-01T09:54:58;25.50;99.90
2967;DHT22;1493;51.496;7.210;2022-09-01T09:57:25;25.60;99.90
2967;DHT22;1493;51.496;7.210;2022-09-01T09:59:58;25.60;99.90
2967;DHT22;1493;51.496;7.210;2022-09-01T10:02:31;25.90;99.90
2967;DHT22;1493;51.496;7.210;2022-09-01T10:05:00;26.00;99.90
2967;DHT22;1493;51.496;7.210;2022-09-01T10:07:35;26.30;99.90
2967;DHT22;1493;51.496;7.210;2022-09-01T10:10:06;26.50;99.90
2967;DHT22;1493;51.496;7.210;2022-09-01T10:12:33;26.50;99.90
2967;DHT22;1493;51.496;7.210;2022-09-01T10:15:05;26.50;99.90
2967;DHT22;1493;51.496;7.210;2022-09-01T10:17:35;26.70;99.90
2967;DHT22;1493;51.496;7.210;2022-09-01T10:20:06;26.70;99.90
2967;DHT22;1493;51.496;7.210;2022-09-01T10:22:36;26.90;99.90
2967;DHT22;1493;51.496;7.210;2022-09-01T10:25:04;27.10;99.90
2967;DHT22;1493;51.496;7.210;2022-09-01T10:27:34;27.20;99.90
2967;DHT22;1493;51.496;7.210;2022-09-01T10:30:06;27.10;99.90
2967;DHT22;1493;51.496;7.210;2022-09-01T10:32:39;27.10;99.90
2967;DHT22;1493;51.496;7.210;2022-09-01T10:35:11;27.20;99.90
2967;DHT22;1493;51.496;7.210;2022-09-01T10:37:41;27.30;99.90
2967;DHT22;1493;51.496;7.210;2022-09-01T10:42:59;27.50;99.90
2967;DHT22;1493;51.496;7.210;2022-09-01T10:45:32;27.70;99.90
2967;DHT22;1493;51.496;7.210;2022-09-01T10:48:22;27.50;99.90
2967;DHT22;1493;51.496;7.210;2022-09-01T10:50:50;27.70;99.90
2967;DHT22;1493;51.496;7.210;2022-09-01T10:53:38;27.70;99.90
2967;DHT22;1493;51.496;7.210;2022-09-01T10:56:10;27.80;99.90
2967;DHT22;1493;51.496;7.210;2022-09-01T10:58:48;28.00;99.90
2967;DHT22;1493;51.496;7.210;2022-09-01T11:07:32;28.40;99.90
2967;DHT22;1493;51.496;7.210;2022-09-01T11:10:27;28.40;99.90
2967;DHT22;1493;51.496;7.210;2022-09-01T11:13:23;28.50;99.90
2967;DHT22;1493;51.496;7.210;2022-09-01T11:16:24;28.40;99.90
2967;DHT22;1493;51.496;7.210;2022-09-01T11:18:51;28.70;99.90
2967;DHT22;1493;51.496;7.210;2022-09-01T11:21:25;28.80;99.90
2967;DHT22;1493;51.496;7.210;2022-09-01T11:26:54;28.70;99.90
2967;DHT22;1493;51.496;7.210;2022-09-01T11:29:53;28.90;99.90
2967;DHT22;1493;51.496;7.210;2022-09-01T11:32:24;29.00;99.90
2967;DHT22;1493;51.496;7.210;2022-09-01T11:34:55;29.40;99.90
2967;DHT22;1493;51.496;7.210;2022-09-01T11:37:24;29.60;99.90
2967;DHT22;1493;51.496;7.210;2022-09-01T11:39:54;29.90;99.90
2967;DHT22;1493;51.496;7.210;2022-09-01T11:42:25;30.20;99.90
2967;DHT22;1493;51.496;7.210;2022-09-01T11:44:55;30.20;99.90
2967;DHT22;1493;51.496;7.210;2022-09-01T11:47:27;30.50;99.90
2967;DHT22;1493;51.496;7.210;2022-09-01T11:49:57;30.50;99.90
2967;DHT22;1493;51.496;7.210;2022-09-01T11:52:36;30.90;99.90
2967;DHT22;1493;51.496;7.210;2022-09-01T11:55:07;30.50;99.90
2967;DHT22;1493;51.496;7.210;2022-09-01T11:57:37;30.10;99.90
2967;DHT22;1493;51.496;7.210;2022-09-01T12:00:06;30.10;99.90
2967;DHT22;1493;51.496;7.210;2022-09-01T12:02:35;30.20;99.90
2967;DHT22;1493;51.496;7.210;2022-09-01T12:05:25;30.10;99.90
2967;DHT22;1493;51.496;7.210;2022-09-01T12:07:54;30.50;99.90
2967;DHT22;1493;51.496;7.210;2022-09-01T12:10:28;30.90;99.90
2967;DHT22;1493;51.496;7.210;2022-09-01T12:13:01;31.40;99.90
2967;DHT22;1493;51.496;7.210;2022-09-01T12:15:28;31.70;99.90
2967;DHT22;1493;51.496;7.210;2022-09-01T12:18:10;31.80;99.90
2967;DHT22;1493;51.496;7.210;2022-09-01T12:20:38;31.70;99.90
2967;DHT22;1493;51.496;7.210;2022-09-01T12:23:17;31.50;99.70
2967;DHT22;1493;51.496;7.210;2022-09-01T12:25:45;31.10;99.20
2967;DHT22;1493;51.496;7.210;2022-09-01T12:28:13;31.00;99.90
2967;DHT22;1493;51.496;7.210;2022-09-01T12:30:41;30.20;97.20
2967;DHT22;1493;51.496;7.210;2022-09-01T12:33:10;29.80;99.70
2967;DHT22;1493;51.496;7.210;2022-09-01T12:35:39;30.20;99.90
2967;DHT22;1493;51.496;7.210;2022-09-01T12:38:23;30.60;99.90
2967;DHT22;1493;51.496;7.210;2022-09-01T12:40:52;30.70;98.70
2967;DHT22;1493;51.496;7.210;2022-09-01T12:43:34;30.80;99.90
2967;DHT22;1493;51.496;7.210;2022-09-01T12:46:03;31.20;99.60
2967;DHT22;1493;51.496;7.210;2022-09-01T12:48:32;31.40;98.30
2967;DHT22;1493;51.496;7.210;2022-09-01T12:51:01;31.40;98.30
2967;DHT22;1493;51.496;7.210;2022-09-01T12:53:32;31.60;96.90
2967;DHT22;1493;51.496;7.210;2022-09-01T12:56:26;31.60;97.50
2967;DHT22;1493;51.496;7.210;2022-09-01T12:59:06;31.50;95.70
2967;DHT22;1493;51.496;7.210;2022-09-01T13:01:35;31.50;97.10
2967;DHT22;1493;51.496;7.210;2022-09-01T13:04:12;31.50;97.60
2967;DHT22;1493;51.496;7.210;2022-09-01T13:06:39;31.70;98.30
2967;DHT22;1493;51.496;7.210;2022-09-01T13:09:07;31.50;95.30
2967;DHT22;1493;51.496;7.210;2022-09-01T13:11:34;31.30;97.90
2967;DHT22;1493;51.496;7.210;2022-09-01T13:14:04;31.30;97.40
2967;DHT22;1493;51.496;7.210;2022-09-01T13:16:32;31.60;98.20
2967;DHT22;1493;51.496;7.210;2022-09-01T13:19:00;31.90;95.00
2967;DHT22;1493;51.496;7.210;2022-09-01T13:21:27;31.80;94.60
2967;DHT22;1493;51.496;7.210;2022-09-01T13:23:54;31.80;93.70
2967;DHT22;1493;51.496;7.210;2022-09-01T13:26:23;31.20;92.80
2967;DHT22;1493;51.496;7.210;2022-09-01T13:28:50;31.30;94.60
2967;DHT22;1493;51.496;7.210;2022-09-01T13:31:18;31.20;93.90
2967;DHT22;1493;51.496;7.210;2022-09-01T13:33:45;31.60;94.70
2967;DHT22;1493;51.496;7.210;2022-09-01T13:36:12;31.50;93.50
2967;DHT22;1493;51.496;7.210;2022-09-01T13:38:39;31.30;92.60
2967;DHT22;1493;51.496;7.210;2022-09-01T13:41:06;31.00;92.00
2967;DHT22;1493;51.496;7.210;2022-09-01T13:43:37;31.00;93.40
2967;DHT22;1493;51.496;7.210;2022-09-01T13:46:04;31.20;91.30
2967;DHT22;1493;51.496;7.210;2022-09-01T13:48:30;31.10;91.10
2967;DHT22;1493;51.496;7.210;2022-09-01T13:51:00;31.10;92.80
2967;DHT22;1493;51.496;7.210;2022-09-01T13:53:27;31.30;93.20
2967;DHT22;1493;51.496;7.210;2022-09-01T13:55:54;31.30;90.10
2967;DHT22;1493;51.496;7.210;2022-09-01T13:58:21;31.30;92.50
2967;DHT22;1493;51.496;7.210;2022-09-01T14:00:49;31.30;91.40
2967;DHT22;1493;51.496;7.210;2022-09-01T14:03:19;31.00;91.20
2967;DHT22;1493;51.496;7.210;2022-09-01T14:05:47;30.60;89.60
2967;DHT22;1493;51.496;7.210;2022-09-01T14:08:17;30.60;90.00
2967;DHT22;1493;51.496;7.210;2022-09-01T14:10:46;30.60;87.70
2967;DHT22;1493;51.496;7.210;2022-09-01T14:13:15;30.60;90.60
2967;DHT22;1493;51.496;7.210;2022-09-01T14:15:43;30.60;91.20
2967;DHT22;1493;51.496;7.210;2022-09-01T14:18:13;30.30;88.60
2967;DHT22;1493;51.496;7.210;2022-09-01T14:20:42;30.30;89.90
2967;DHT22;1493;51.496;7.210;2022-09-01T14:23:10;30.20;86.80
2967;DHT22;1493;51.496;7.210;2022-09-01T14:25:41;30.30;90.00
2967;DHT22;1493;51.496;7.210;2022-09-01T14:28:08;30.40;85.90
2967;DHT22;1493;51.496;7.210;2022-09-01T14:30:35;30.30;89.20
2967;DHT22;1493;51.496;7.210;2022-09-01T14:33:02;30.40;88.00
2967;DHT22;1493;51.496;7.210;2022-09-01T14:35:31;30.30;86.20
2967;DHT22;1493;51.496;7.210;2022-09-01T14:37:59;30.40;84.90
2967;DHT22;1493;51.496;7.210;2022-09-01T14:40:27;30.30;85.10
2967;DHT22;1493;51.496;7.210;2022-09-01T14:42:54;30.10;85.80
2967;DHT22;1493;51.496;7.210;2022-09-01T14:45:23;30.00;85.00
2967;DHT22;1493;51.496;7.210;2022-09-01T14:47:52;29.90;78.80
2967;DHT22;1493;51.496;7.210;2022-09-01T14:50:20;29.70;85.90
2967;DHT22;1493;51.496;7.210;2022-09-01T14:52:52;29.50;82.00
2967;DHT22;1493;51.496;7.210;2022-09-01T14:55:20;29.30;84.00
2967;DHT22;1493;51.496;7.210;2022-09-01T14:57:46;29.00;82.70
2967;DHT22;1493;51.496;7.210;2022-09-01T15:00:14;29.00;81.80
2967;DHT22;1493;51.496;7.210;2022-09-01T15:02:42;28.90;83.10
2967;DHT22;1493;51.496;7.210;2022-09-01T15:05:12;28.80;84.70
2967;DHT22;1493;51.496;7.210;2022-09-01T15:07:40;28.50;86.00
2967;DHT22;1493;51.496;7.210;2022-09-01T15:10:11;28.30;81.40
2967;DHT22;1493;51.496;7.210;2022-09-01T15:12:48;28.30;79.00
2967;DHT22;1493;51.496;7.210;2022-09-01T15:15:16;28.20;81.10
2967;DHT22;1493;51.496;7.210;2022-09-01T15:17:47;28.10;80.40
2967;DHT22;1493;51.496;7.210;2022-09-01T15:20:14;28.10;81.40
2967;DHT22;1493;51.496;7.210;2022-09-01T15:23:05;28.10;81.60
2967;DHT22;1493;51.496;7.210;2022-09-01T15:25:33;28.20;83.60
2967;DHT22;1493;51.496;7.210;2022-09-01T15:28:01;28.30;80.30
2967;DHT22;1493;51.496;7.210;2022-09-01T15:30:38;28.40;81.60
2967;DHT22;1493;51.496;7.210;2022-09-01T15:33:06;28.60;83.90
2967;DHT22;1493;51.496;7.210;2022-09-01T15:35:34;28.80;80.40
2967;DHT22;1493;51.496;7.210;2022-09-01T15:38:04;28.90;80.20
2967;DHT22;1493;51.496;7.210;2022-09-01T15:40:43;28.90;81.70
2967;DHT22;1493;51.496;7.210;2022-09-01T15:43:12;28.70;81.40
2967;DHT22;1493;51.496;7.210;2022-09-01T15:45:39;28.50;80.40
2967;DHT22;1493;51.496;7.210;2022-09-01T15:48:08;28.20;77.60
2967;DHT22;1493;51.496;7.210;2022-09-01T15:50:37;27.70;77.40
2967;DHT22;1493;51.496;7.210;2022-09-01T15:53:09;27.50;79.60
2967;DHT22;1493;51.496;7.210;2022-09-01T15:55:43;27.40;83.00
2967;DHT22;1493;51.496;7.210;2022-09-01T15:58:17;27.10;80.70
2967;DHT22;1493;51.496;7.210;2022-09-01T16:00:53;26.80;79.80
2967;DHT22;1493;51.496;7.210;2022-09-01T16:03:21;26.60;80.40
2967;DHT22;1493;51.496;7.210;2022-09-01T16:05:52;26.30;80.30
2967;DHT22;1493;51.496;7.210;2022-09-01T16:08:19;26.00;78.40
2967;DHT22;1493;51.496;7.210;2022-09-01T16:10:49;25.90;80.80
2967;DHT22;1493;51.496;7.210;2022-09-01T16:13:16;25.80;80.30
2967;DHT22;1493;51.496;7.210;2022-09-01T16:15:49;25.70;79.00
2967;DHT22;1493;51.496;7.210;2022-09-01T16:18:27;25.50;79.80
2967;DHT22;1493;51.496;7.210;2022-09-01T16:21:07;25.40;80.30
2967;DHT22;1493;51.496;7.210;2022-09-01T16:23:46;25.40;81.60
2967;DHT22;1493;51.496;7.210;2022-09-01T16:26:15;25.30;80.90
2967;DHT22;1493;51.496;7.210;2022-09-01T16:28:50;25.20;79.20
2967;DHT22;1493;51.496;7.210;2022-09-01T16:31:21;25.20;83.30
2967;DHT22;1493;51.496;7.210;2022-09-01T16:33:58;25.20;82.00